Time;durP1;ratioP1;P1;durP2;ratioP2;P2;SDS_P1;SDS_P2;PMS_P1;PMS_P2;Temp;Humidity;BMP_temperature;BMP_pressure;BME280_temperature;BME280_humidity;BME280_pressure;Samples;Min_cycle;Max_cycle;Signal;HPM_P1;HPM_P2
2022/05/03 00:02:07;;;;;;;;;;;;;;;5.94;79.01;99391.25;1691691;84;20136;-68
2022/05/03 00:04:53;;;;;;;;;;;;;;;5.88;77.81;99380.66;1695386;84;20158;-67
2022/05/03 00:07:26;;;;;;;;;;;;;;;5.78;78.15;99380.21;1698652;84;20103;-67
2022/05/03 00:10:11;;;;;;;;;;;;;;;5.70;78.64;99375.97;1701557;84;20101;-67
2022/05/03 00:12:48;;;;;;;;;;;;;;;5.63;79.06;99378.48;1704479;83;21808;-68
2022/05/03 00:15:16;;;;;;;;;;;;;;;5.60;80.09;99375.52;1695222;83;20099;-68
2022/05/03 00:17:43;;;;;;;;;;;;;;;5.61;80.62;99381.23;1703752;83;20101;-67
2022/05/03 00:20:10;;;;;;;;;;;;;;;5.61;81.00;99379.86;1708042;83;20659;-67
2022/05/03 00:22:37;;;;;;;;;;;;;;;5.55;80.84;99381.01;1698763;84;20185;-68
2022/05/03 00:25:05;;;;;;;;;;;;;;;5.51;81.33;99378.05;1699654;83;21218;-67
2022/05/03 00:27:31;;;;;;;;;;;;;;;5.49;81.44;99369.91;1683844;84;20494;-67
2022/05/03 00:29:58;;;;;;;;;;;;;;;5.49;81.67;99369.91;1670696;84;20088;-67
2022/05/03 00:32:29;;;;;;;;;;;;;;;5.48;82.05;99372.36;1678232;85;20124;-67
2022/05/03 00:34:54;;;;;;;;;;;;;;;5.43;82.74;99370.50;1684073;84;20434;-67
2022/05/03 00:37:20;;;;;;;;;;;;;;;5.38;83.19;99369.73;1680768;84;21134;-67
2022/05/03 00:39:46;;;;;;;;;;;;;;;5.34;83.55;99359.14;1666684;84;20466;-67
2022/05/03 00:42:15;;;;;;;;;;;;;;;5.35;83.74;99356.14;1683441;85;20119;-67
2022/05/03 00:45:02;;;;;;;;;;;;;;;5.38;83.88;99350.12;1680394;85;20911;-67
2022/05/03 00:47:52;;;;;;;;;;;;;;;5.42;84.03;99354.45;1666677;83;20088;-67
2022/05/03 00:50:34;;;;;;;;;;;;;;;5.43;84.26;99350.63;1663149;84;21223;-67
2022/05/03 00:53:19;;;;;;;;;;;;;;;5.44;84.79;99350.89;1686018;84;20079;-67
2022/05/03 00:55:56;;;;;;;;;;;;;;;5.43;85.74;99351.98;1669585;84;20099;-67
2022/05/03 00:58:26;;;;;;;;;;;;;;;5.39;85.83;99349.58;1671853;84;20121;-67
2022/05/03 01:01:04;;;;;;;;;;;;;;;5.38;86.34;99350.67;1675520;84;20146;-67
2022/05/03 01:03:40;;;;;;;;;;;;;;;5.35;86.49;99344.44;1691766;84;21145;-67
2022/05/03 01:06:19;;;;;;;;;;;;;;;5.35;86.64;99344.44;1683119;84;20093;-67
2022/05/03 01:08:53;;;;;;;;;;;;;;;5.34;86.68;99345.53;1654352;84;20205;-67
2022/05/03 01:11:47;;;;;;;;;;;;;;;5.33;87.05;99345.27;1635365;86;20106;-67
2022/05/03 01:14:36;;;;;;;;;;;;;;;5.34;87.16;99340.91;1637924;86;20103;-68
2022/05/03 01:17:12;;;;;;;;;;;;;;;5.37;87.58;99343.61;1632577;86;21246;-67
2022/05/03 01:20:07;;;;;;;;;;;;;;;5.39;87.99;99336.77;1644868;86;20146;-68
2022/05/03 01:23:05;;;;;;;;;;;;;;;5.42;88.27;99342.20;1645034;84;20109;-67
2022/05/03 01:26:06;;;;;;;;;;;;;;;5.46;88.44;99345.97;1644696;85;20094;-69
2022/05/03 01:28:46;;;;;;;;;;;;;;;5.50;88.60;99340.22;1641583;85;20118;-68
2022/05/03 01:31:13;;;;;;;;;;;;;;;5.52;88.51;99338.83;1672185;84;21170;-68
2022/05/03 01:33:41;;;;;;;;;;;;;;;5.59;88.65;99339.85;1660399;84;20088;-69
2022/05/03 01:36:09;;;;;;;;;;;;;;;5.64;88.67;99332.99;1662693;85;33510;-69
2022/05/03 01:39:02;;;;;;;;;;;;;;;5.75;88.99;99332.34;1666359;83;20139;-67
2022/05/03 01:41:44;;;;;;;;;;;;;;;5.84;89.00;99329.21;1679293;84;20097;-67
2022/05/03 01:44:35;;;;;;;;;;;;;;;5.93;88.34;99333.77;1679985;84;21194;-67
2022/05/03 01:47:08;;;;;;;;;;;;;;;6.01;87.50;99336.95;1695571;84;20121;-67
2022/05/03 01:53:09;;;;;;;;;;;;;;;6.13;88.45;99335.99;1692743;84;20090;-68
2022/05/03 01:55:55;;;;;;;;;;;;;;;6.18;88.39;99339.47;1692599;83;20129;-68
2022/05/03 01:59:03;;;;;;;;;;;;;;;6.24;88.30;99335.58;1688413;84;21177;-68
2022/05/03 02:01:36;;;;;;;;;;;;;;;6.31;88.11;99339.30;1674966;84;20451;-68
2022/05/03 02:04:09;;;;;;;;;;;;;;;6.39;87.78;99331.81;1673590;83;20132;-68
2022/05/03 02:06:57;;;;;;;;;;;;;;;6.49;87.88;99333.03;1651686;83;20136;-68
2022/05/03 02:09:33;;;;;;;;;;;;;;;6.57;87.72;99329.66;1659834;84;20160;-68
2022/05/03 02:12:08;;;;;;;;;;;;;;;6.62;87.11;99328.22;1676649;85;20602;-67
2022/05/03 02:14:46;;;;;;;;;;;;;;;6.68;87.05;99329.50;1678631;84;20115;-68
2022/05/03 02:17:20;;;;;;;;;;;;;;;6.73;86.65;99323.97;1667122;84;20156;-68
2022/05/03 02:20:05;;;;;;;;;;;;;;;6.81;86.34;99323.31;1660223;84;20088;-68
2022/05/03 02:22:47;;;;;;;;;;;;;;;6.88;86.56;99326.47;1663017;84;20435;-68
2022/05/03 02:25:27;;;;;;;;;;;;;;;6.92;86.79;99321.49;1660329;84;21338;-68
2022/05/03 02:28:14;;;;;;;;;;;;;;;6.96;86.80;99319.77;1685310;83;20078;-68
2022/05/03 02:30:40;;;;;;;;;;;;;;;7.00;87.07;99324.07;1698579;84;20428;-67
2022/05/03 02:33:20;;;;;;;;;;;;;;;7.00;87.24;99315.08;1673478;84;20190;-68
2022/05/03 02:35:51;;;;;;;;;;;;;;;7.01;86.89;99318.06;1681004;83;20127;-68
2022/05/03 02:38:20;;;;;;;;;;;;;;;7.02;87.34;99321.86;1669363;83;21147;-68
2022/05/03 02:40:49;;;;;;;;;;;;;;;7.03;87.85;99324.03;1698262;83;20107;-68
2022/05/03 02:43:15;;;;;;;;;;;;;;;7.00;87.11;99323.27;1663184;84;20536;-67
2022/05/03 02:45:47;;;;;;;;;;;;;;;6.99;86.84;99325.18;1691986;85;20115;-68
2022/05/03 02:48:14;;;;;;;;;;;;;;;6.99;87.18;99324.38;1699449;83;20250;-68
2022/05/03 02:50:48;;;;;;;;;;;;;;;7.01;87.34;99324.88;1661177;85;21195;-68
2022/05/03 02:53:18;;;;;;;;;;;;;;;7.02;87.87;99324.59;1631642;87;20143;-68
2022/05/03 02:56:01;;;;;;;;;;;;;;;7.02;88.09;99325.95;1631668;87;20102;-68
2022/05/03 02:58:37;;;;;;;;;;;;;;;7.01;88.16;99324.88;1658753;85;20116;-68
2022/05/03 03:04:30;;;;;;;;;;;;;;;7.03;88.45;99325.39;1633887;88;21155;-68
2022/05/03 03:06:56;;;;;;;;;;;;;;;7.04;88.54;99321.56;1615491;88;20128;-68
2022/05/03 03:09:30;;;;;;;;;;;;;;;7.04;88.52;99323.73;1633725;88;20445;-68
2022/05/03 03:12:06;;;;;;;;;;;;;;;7.05;88.84;99318.53;1629302;88;20092;-68
2022/05/03 03:14:48;;;;;;;;;;;;;;;7.09;89.44;99316.02;1633274;86;20100;-67
2022/05/03 03:17:22;;;;;;;;;;;;;;;7.11;89.36;99315.16;1629617;88;21166;-68
2022/05/03 03:20:09;;;;;;;;;;;;;;;7.16;88.76;99315.08;1687112;83;20123;-68
2022/05/03 03:22:43;;;;;;;;;;;;;;;7.19;88.26;99313.13;1687977;84;20118;-67
2022/05/03 03:25:16;;;;;;;;;;;;;;;7.22;87.52;99317.42;1688856;84;20085;-67
2022/05/03 03:27:44;;;;;;;;;;;;;;;7.23;87.07;99326.43;1688489;83;20236;-67
2022/05/03 03:30:12;;;;;;;;;;;;;;;7.25;87.13;99328.31;1685820;83;22038;-67
2022/05/03 03:32:41;;;;;;;;;;;;;;;7.27;87.23;99326.90;1685375;84;20122;-67
2022/05/03 03:35:08;;;;;;;;;;;;;;;7.34;88.02;99326.52;1666387;84;20092;-67
2022/05/03 03:37:35;;;;;;;;;;;;;;;7.44;88.11;99328.27;1697325;83;20416;-67
2022/05/03 03:40:04;;;;;;;;;;;;;;;7.55;87.73;99325.57;1704371;84;20098;-67
2022/05/03 03:42:30;;;;;;;;;;;;;;;7.65;86.26;99321.29;1691791;83;21174;-67
2022/05/03 03:45:01;;;;;;;;;;;;;;;7.77;84.97;99323.53;1695541;84;20194;-67
2022/05/03 03:47:30;;;;;;;;;;;;;;;7.87;84.07;99318.68;1694079;84;20095;-67
2022/05/03 03:50:00;;;;;;;;;;;;;;;7.98;82.87;99323.39;1700772;84;20611;-67
2022/05/03 03:52:26;;;;;;;;;;;;;;;8.07;81.66;99324.86;1701835;83;20125;-67
2022/05/03 03:54:54;;;;;;;;;;;;;;;8.16;80.95;99325.73;1706935;83;21217;-67
2022/05/03 03:57:21;;;;;;;;;;;;;;;8.25;80.30;99321.17;1681201;84;20472;-67
2022/05/03 03:59:48;;;;;;;;;;;;;;;8.33;79.66;99323.22;1669765;85;20114;-67
2022/05/03 04:02:15;;;;;;;;;;;;;;;8.41;79.34;99326.60;1668494;83;20113;-67
2022/05/03 04:04:43;;;;;;;;;;;;;;;8.52;79.22;99331.30;1667922;84;20427;-67
2022/05/03 04:07:09;;;;;;;;;;;;;;;8.62;79.09;99332.44;1683926;83;21244;-67
2022/05/03 04:09:37;;;;;;;;;;;;;;;8.70;78.93;99333.05;1673141;85;20085;-69
2022/05/03 04:12:05;;;;;;;;;;;;;;;8.79;79.23;99327.66;1675542;85;20124;-66
2022/05/03 04:14:32;;;;;;;;;;;;;;;8.87;78.60;99324.99;1676265;84;20301;-67
2022/05/03 04:17:00;;;;;;;;;;;;;;;8.97;78.22;99326.68;1679577;82;20149;-66
2022/05/03 04:19:27;;;;;;;;;;;;;;;9.07;78.22;99325.06;1672106;85;21142;-67
2022/05/03 04:21:53;;;;;;;;;;;;;;;9.17;77.68;99328.93;1651714;85;20136;-67
2022/05/03 04:24:19;;;;;;;;;;;;;;;9.27;77.63;99328.65;1667737;85;20120;-67
2022/05/03 04:26:46;;;;;;;;;;;;;;;9.41;76.77;99330.50;1666818;85;20176;-67
2022/05/03 04:29:14;;;;;;;;;;;;;;;9.53;75.49;99330.74;1661112;85;20442;-68
2022/05/03 04:31:42;;;;;;;;;;;;;;;9.68;78.07;99324.86;1672178;85;20096;-67
2022/05/03 04:34:08;;;;;;;;;;;;;;;9.84;76.06;99321.92;1656453;84;20117;-67
2022/05/03 04:36:35;;;;;;;;;;;;;;;9.95;73.87;99319.72;1662146;85;20125;-67
2022/05/03 04:39:04;;;;;;;;;;;;;;;10.05;72.92;99324.10;1665250;86;20715;-68
2022/05/03 04:41:30;;;;;;;;;;;;;;;10.15;72.24;99326.56;1654522;85;20104;-67
2022/05/03 04:43:57;;;;;;;;;;;;;;;10.27;71.18;99320.50;1664558;84;21727;-67
2022/05/03 04:46:23;;;;;;;;;;;;;;;10.39;70.57;99322.87;1662024;84;20088;-67
2022/05/03 04:48:50;;;;;;;;;;;;;;;10.54;69.90;99318.27;1671774;84;20079;-69
2022/05/03 04:51:20;;;;;;;;;;;;;;;10.71;68.24;99322.16;1680050;85;20612;-68
2022/05/03 04:53:47;;;;;;;;;;;;;;;10.86;66.68;99315.63;1680484;84;20099;-69
2022/05/03 04:56:21;;;;;;;;;;;;;;;11.03;65.85;99318.91;1683288;84;21226;-69
2022/05/03 04:58:48;;;;;;;;;;;;;;;11.22;65.14;99312.52;1681773;84;20149;-67
2022/05/03 05:01:15;;;;;;;;;;;;;;;11.43;62.69;99317.33;1675604;82;20104;-70
2022/05/03 05:03:41;;;;;;;;;;;;;;;11.62;60.37;99309.48;1682929;84;21702;-69
2022/05/03 05:06:09;;;;;;;;;;;;;;;11.83;59.49;99300.80;1684872;83;20136;-69
2022/05/03 05:08:39;;;;;;;;;;;;;;;12.06;57.34;99294.47;1673445;82;22129;-69
2022/05/03 05:11:06;;;;;;;;;;;;;;;12.31;56.84;99295.44;1683979;84;20148;-68
2022/05/03 05:13:33;;;;;;;;;;;;;;;12.54;57.57;99295.38;1658096;85;20137;-70
2022/05/03 05:15:59;;;;;;;;;;;;;;;12.77;56.31;99297.77;1667031;84;20590;-69
2022/05/03 05:18:27;;;;;;;;;;;;;;;12.98;55.87;99295.81;1682251;84;20124;-69
2022/05/03 05:20:55;;;;;;;;;;;;;;;13.17;55.71;99298.91;1668035;84;21206;-67
2022/05/03 05:23:21;;;;;;;;;;;;;;;13.35;55.33;99301.47;1668502;83;20148;-69
2022/05/03 05:25:48;;;;;;;;;;;;;;;13.48;54.48;99301.17;1669003;84;20160;-69
2022/05/03 05:28:19;;;;;;;;;;;;;;;13.60;53.67;99297.64;1679851;83;20125;-70
2022/05/03 05:30:46;;;;;;;;;;;;;;;13.71;53.51;99297.44;1696099;83;20114;-65
2022/05/03 05:33:12;;;;;;;;;;;;;;;13.84;53.57;99299.06;1655191;83;21144;-68
2022/05/03 05:35:40;;;;;;;;;;;;;;;13.96;52.12;99298.24;1649423;85;20152;-68
2022/05/03 05:38:06;;;;;;;;;;;;;;;14.04;51.73;99292.37;1620071;87;20173;-69
2022/05/03 05:40:33;;;;;;;;;;;;;;;14.11;52.39;99290.66;1665078;84;20150;-68
2022/05/03 05:43:00;;;;;;;;;;;;;;;14.23;53.86;99280.19;1634327;83;20118;-70
2022/05/03 05:45:27;;;;;;;;;;;;;;;14.37;51.05;99284.78;1685379;83;21155;-69
2022/05/03 05:47:53;;;;;;;;;;;;;;;14.46;49.91;99279.94;1686088;84;20180;-69
2022/05/03 05:50:20;;;;;;;;;;;;;;;14.52;48.61;99288.21;1688562;83;20149;-66
2022/05/03 05:55:39;;;;;;;;;;;;;;;14.65;49.30;99284.85;1695039;84;20146;-68
2022/05/03 05:58:11;;;;;;;;;;;;;;;14.79;49.44;99296.91;1686169;83;21125;-67
2022/05/03 06:00:47;;;;;;;;;;;;;;;14.91;49.46;99291.92;1669146;84;20163;-68
2022/05/03 06:03:17;;;;;;;;;;;;;;;14.96;47.91;99293.86;1696168;83;20098;-69
2022/05/03 06:05:43;;;;;;;;;;;;;;;14.95;48.33;99292.25;1691426;83;20151;-70
2022/05/03 06:08:22;;;;;;;;;;;;;;;14.98;48.06;99291.55;1691963;82;20088;-69
2022/05/03 06:10:49;;;;;;;;;;;;;;;14.99;47.59;99294.55;1689173;83;21748;-67
2022/05/03 06:13:17;;;;;;;;;;;;;;;15.02;48.84;99294.42;1690027;83;20149;-69
2022/05/03 06:15:45;;;;;;;;;;;;;;;15.08;48.34;99298.52;1687090;83;20088;-72
2022/05/03 06:18:19;;;;;;;;;;;;;;;15.11;47.74;99290.33;1666356;83;20469;-72
2022/05/03 06:20:47;;;;;;;;;;;;;;;15.14;47.71;99297.11;1667163;85;20138;-69
2022/05/03 06:23:16;;;;;;;;;;;;;;;15.12;46.92;99290.55;1684476;83;21131;-74
2022/05/03 06:25:45;;;;;;;;;;;;;;;15.10;47.71;99289.29;1670946;84;20168;-73
2022/05/03 06:28:14;;;;;;;;;;;;;;;15.16;47.43;99298.94;1664548;84;20438;-69
2022/05/03 06:30:41;;;;;;;;;;;;;;;15.30;46.66;99291.63;1676134;85;20148;-70
2022/05/03 06:33:12;;;;;;;;;;;;;;;15.42;46.68;99285.45;1670192;84;20151;-70
2022/05/03 06:35:38;;;;;;;;;;;;;;;15.55;46.54;99288.96;1686009;83;21378;-73
2022/05/03 06:38:06;;;;;;;;;;;;;;;15.70;46.20;99288.18;1674263;85;20088;-71
2022/05/03 06:40:35;;;;;;;;;;;;;;;15.94;45.89;99288.59;1644795;84;20475;-72
2022/05/03 06:43:03;;;;;;;;;;;;;;;16.18;44.35;99287.56;1581092;88;20549;-72
2022/05/03 06:45:32;;;;;;;;;;;;;;;16.39;44.14;99282.53;1636864;85;20212;-70
2022/05/03 06:48:02;;;;;;;;;;;;;;;16.63;43.88;99279.30;1664441;85;21664;-70
2022/05/03 06:50:30;;;;;;;;;;;;;;;16.87;41.78;99290.72;1638555;86;20126;-68
2022/05/03 06:52:56;;;;;;;;;;;;;;;17.05;40.90;99289.12;1658787;85;20444;-70
2022/05/03 06:55:23;;;;;;;;;;;;;;;17.19;40.35;99284.45;1628756;87;20169;-68
2022/05/03 06:57:49;;;;;;;;;;;;;;;17.35;40.23;99281.78;1663273;85;20431;-68
2022/05/03 07:00:18;;;;;;;;;;;;;;;17.55;40.33;99277.00;1635161;87;21154;-71
2022/05/03 07:02:45;;;;;;;;;;;;;;;17.73;39.72;99276.77;1626390;88;20115;-69
2022/05/03 07:05:12;;;;;;;;;;;;;;;17.80;39.18;99284.42;1632779;85;20179;-77
2022/05/03 07:07:39;;;;;;;;;;;;;;;17.83;38.59;99277.33;1660861;85;20172;-75
2022/05/03 07:10:07;;;;;;;;;;;;;;;17.84;37.83;99270.02;1655725;86;20091;-69
2022/05/03 07:12:35;;;;;;;;;;;;;;;17.90;38.05;99266.34;1651726;85;21280;-70
2022/05/03 07:15:04;;;;;;;;;;;;;;;17.98;38.24;99274.98;1660843;85;20100;-71
2022/05/03 07:23:01;;;;;;;;;;;;;;;18.56;35.17;99269.09;1664577;85;20140;-70
2022/05/03 07:25:30;;;;;;;;;;;;;;;18.64;35.06;99276.39;1665216;85;21221;-70
2022/05/03 07:27:58;;;;;;;;;;;;;;;18.67;35.84;99274.25;1674389;83;20122;-72
2022/05/03 07:30:24;;;;;;;;;;;;;;;18.61;35.11;99277.95;1697222;82;20110;-69
2022/05/03 07:32:52;;;;;;;;;;;;;;;18.55;36.02;99273.86;1655004;85;20206;-69
2022/05/03 07:35:25;;;;;;;;;;;;;;;18.62;35.75;99273.98;1672274;85;20108;-69
2022/05/03 07:37:57;;;;;;;;;;;;;;;18.75;36.09;99267.61;1669865;85;21368;-73
2022/05/03 07:40:28;;;;;;;;;;;;;;;19.02;37.41;99271.14;1651038;85;20150;-70
2022/05/03 07:42:53;;;;;;;;;;;;;;;19.29;34.40;99264.88;1646881;85;20126;-72
2022/05/03 07:45:20;;;;;;;;;;;;;;;19.33;34.74;99265.71;1678701;85;20516;-74
2022/05/03 07:47:52;;;;;;;;;;;;;;;19.42;33.77;99262.84;1651842;84;20209;-72
2022/05/03 07:50:23;;;;;;;;;;;;;;;19.50;33.13;99259.54;1596677;87;20094;-68
2022/05/03 07:52:53;;;;;;;;;;;;;;;19.55;33.25;99259.22;1582329;88;20262;-68
2022/05/03 07:55:21;;;;;;;;;;;;;;;19.75;32.76;99260.58;1642288;86;20444;-69
2022/05/03 07:57:50;;;;;;;;;;;;;;;19.97;31.39;99253.22;1624458;87;20444;-69
2022/05/03 08:00:19;;;;;;;;;;;;;;;20.18;31.96;99255.38;1633498;87;20150;-69
2022/05/03 08:02:46;;;;;;;;;;;;;;;20.41;31.17;99246.77;1633957;86;21914;-69
2022/05/03 08:05:17;;;;;;;;;;;;;;;20.51;30.28;99256.39;1601087;87;20956;-69
2022/05/03 08:07:45;;;;;;;;;;;;;;;20.37;30.70;99244.52;1693001;83;20181;-70
2022/05/03 08:10:13;;;;;;;;;;;;;;;20.20;31.03;99247.42;1697146;84;20121;-70
2022/05/03 08:12:43;;;;;;;;;;;;;;;20.04;30.96;99251.88;1691916;83;20141;-70
2022/05/03 08:15:12;;;;;;;;;;;;;;;19.85;31.88;99248.53;1695816;83;21290;-69
2022/05/03 08:17:40;;;;;;;;;;;;;;;19.72;32.09;99245.23;1666214;83;21175;-71
2022/05/03 08:20:11;;;;;;;;;;;;;;;19.65;32.40;99243.18;1662901;84;20432;-70
2022/05/03 08:22:40;;;;;;;;;;;;;;;19.60;31.48;99242.17;1632114;87;20170;-68
2022/05/03 08:25:13;;;;;;;;;;;;;;;19.51;32.09;99242.24;1650296;85;20154;-71
2022/05/03 08:27:40;;;;;;;;;;;;;;;19.52;32.45;99241.09;1649611;86;21385;-74
2022/05/03 08:30:07;;;;;;;;;;;;;;;19.65;32.45;99239.59;1648028;86;20178;-73
2022/05/03 08:32:36;;;;;;;;;;;;;;;19.85;31.71;99242.96;1639450;85;20167;-69
2022/05/03 08:35:04;;;;;;;;;;;;;;;19.86;32.18;99238.39;1632641;86;20208;-71
2022/05/03 08:43:13;;;;;;;;;;;;;;;19.32;30.82;99235.69;1652933;85;20440;-68
2022/05/03 08:45:44;;;;;;;;;;;;;;;19.35;31.11;99237.71;1663577;85;20124;-72
2022/05/03 08:48:15;;;;;;;;;;;;;;;19.58;30.84;99231.20;1657211;85;20180;-73
2022/05/03 08:50:41;;;;;;;;;;;;;;;19.94;30.64;99214.19;1655065;85;20190;-75
2022/05/03 08:53:08;;;;;;;;;;;;;;;20.39;29.47;99210.92;1629260;86;21153;-69
2022/05/03 08:55:43;;;;;;;;;;;;;;;20.79;28.46;99206.94;1599935;89;20180;-69
2022/05/03 08:58:21;;;;;;;;;;;;;;;21.16;28.76;99203.86;1628379;85;20257;-74
2022/05/03 09:00:49;;;;;;;;;;;;;;;21.62;27.80;99208.13;1592391;88;20164;-70
2022/05/03 09:03:18;;;;;;;;;;;;;;;21.97;27.13;99205.91;1633721;86;20538;-69
2022/05/03 09:05:45;;;;;;;;;;;;;;;22.16;26.20;99206.92;1626266;86;21168;-75
2022/05/03 09:08:12;;;;;;;;;;;;;;;22.42;25.70;99209.08;1658942;84;20147;-77
2022/05/03 09:10:42;;;;;;;;;;;;;;;22.49;25.50;99198.67;1653958;85;20088;-77
2022/05/03 09:13:22;;;;;;;;;;;;;;;22.54;25.28;99204.42;1654404;85;20169;-69
2022/05/03 09:15:55;;;;;;;;;;;;;;;22.66;25.54;99196.39;1665654;85;20108;-75
2022/05/03 09:18:26;;;;;;;;;;;;;;;22.96;24.79;99195.10;1660152;85;22054;-71
2022/05/03 09:23:53;;;;;;;;;;;;;;;22.91;24.80;99183.72;1664172;85;20151;-79
2022/05/03 09:26:23;;;;;;;;;;;;;;;22.68;24.77;99183.39;1651626;85;20107;-78
2022/05/03 09:28:55;;;;;;;;;;;;;;;22.39;25.16;99182.12;1673261;85;20107;-77
2022/05/03 09:31:43;;;;;;;;;;;;;;;22.26;25.52;99168.97;1667501;85;21270;-74
2022/05/03 09:34:28;;;;;;;;;;;;;;;22.22;25.88;99170.37;1677992;85;20124;-72
2022/05/03 09:37:00;;;;;;;;;;;;;;;22.23;25.71;99171.97;1670102;85;20469;-69
2022/05/03 09:39:28;;;;;;;;;;;;;;;22.10;24.90;99169.39;1664614;85;20180;-76
2022/05/03 09:42:09;;;;;;;;;;;;;;;21.76;26.26;99171.82;1654976;85;20088;-75
2022/05/03 09:44:42;;;;;;;;;;;;;;;21.49;26.41;99173.41;1668063;85;21651;-75
2022/05/03 09:47:08;;;;;;;;;;;;;;;21.32;27.23;99158.26;1653743;85;20090;-73
2022/05/03 09:49:40;;;;;;;;;;;;;;;21.29;27.23;99157.06;1659853;86;20095;-74
2022/05/03 09:52:12;;;;;;;;;;;;;;;21.19;27.41;99156.41;1654980;84;20428;-75
2022/05/03 09:54:51;;;;;;;;;;;;;;;21.07;27.72;99152.00;1647093;86;20127;-83
2022/05/03 09:57:24;;;;;;;;;;;;;;;21.21;27.90;99151.83;1628007;86;20102;-78
2022/05/03 09:59:53;;;;;;;;;;;;;;;21.57;26.59;99149.88;1646025;85;20178;-70
2022/05/03 10:02:27;;;;;;;;;;;;;;;21.78;25.78;99142.88;1663973;84;20105;-71
2022/05/03 10:05:04;;;;;;;;;;;;;;;21.91;26.51;99134.29;1618123;87;20184;-67
2022/05/03 10:07:30;;;;;;;;;;;;;;;22.02;25.23;99133.67;1623754;85;20264;-73
2022/05/03 10:10:03;;;;;;;;;;;;;;;22.15;26.29;99138.84;1621314;86;20804;-75
2022/05/03 10:12:27;;;;;;;;;;;;;;;22.45;25.99;99128.56;1621636;86;20119;-76
2022/05/03 10:14:57;;;;;;;;;;;;;;;22.52;27.11;99130.73;1618796;86;20148;-75
2022/05/03 10:20:39;;;;;;;;;;;;;;;22.60;25.62;99126.67;1601982;87;20141;-75
2022/05/03 10:23:32;;;;;;;;;;;;;;;22.57;25.93;99116.89;1640075;86;21206;-73
2022/05/03 10:26:05;;;;;;;;;;;;;;;22.77;27.68;99121.40;1634193;87;20106;-72
2022/05/03 10:29:04;;;;;;;;;;;;;;;23.17;25.60;99110.96;1623787;86;20461;-73
2022/05/03 10:31:32;;;;;;;;;;;;;;;23.44;26.43;99101.97;1622803;84;20142;-72
2022/05/03 10:34:04;;;;;;;;;;;;;;;23.77;24.53;99098.47;1669168;84;20118;-75
2022/05/03 10:36:34;;;;;;;;;;;;;;;23.71;24.69;99098.72;1666038;84;21839;-72
2022/05/03 10:39:06;;;;;;;;;;;;;;;23.49;25.23;99113.52;1666355;84;20140;-69
2022/05/03 10:41:53;;;;;;;;;;;;;;;23.26;23.55;99102.10;1631330;86;20222;-79
2022/05/03 10:44:48;;;;;;;;;;;;;;;23.15;24.44;99098.58;1662816;84;20110;-69
2022/05/03 10:47:24;;;;;;;;;;;;;;;23.24;24.98;99091.92;1620763;86;20112;-69
2022/05/03 10:50:09;;;;;;;;;;;;;;;23.49;23.29;99093.12;1622792;87;22144;-69
2022/05/03 10:52:37;;;;;;;;;;;;;;;23.21;23.33;99098.34;1614811;88;20097;-71
2022/05/03 10:55:08;;;;;;;;;;;;;;;22.79;24.05;99087.64;1628760;86;20143;-71
2022/05/03 10:57:59;;;;;;;;;;;;;;;22.52;24.89;99083.78;1664497;85;20210;-71
2022/05/03 11:01:00;;;;;;;;;;;;;;;22.39;24.32;99084.23;1654117;85;20147;-72
2022/05/03 11:03:38;;;;;;;;;;;;;;;22.18;24.91;99076.53;1652964;83;20130;-70
2022/05/03 11:06:26;;;;;;;;;;;;;;;22.21;26.61;99068.73;1647472;85;20200;-69
2022/05/03 11:11:50;;;;;;;;;;;;;;;22.31;25.50;99060.91;1660557;85;20177;-72
2022/05/03 11:14:24;;;;;;;;;;;;;;;22.20;26.05;99068.54;1664058;85;20161;-71
2022/05/03 11:17:12;;;;;;;;;;;;;;;22.06;25.67;99059.59;1644174;86;20127;-67
2022/05/03 11:19:49;;;;;;;;;;;;;;;21.91;26.43;99044.08;1638337;87;20164;-71
2022/05/03 11:22:28;;;;;;;;;;;;;;;21.76;26.48;99053.09;1606675;87;20154;-69
2022/05/03 11:24:59;;;;;;;;;;;;;;;21.74;26.01;99051.30;1602533;87;20601;-68
2022/05/03 11:27:28;;;;;;;;;;;;;;;21.57;25.29;99042.34;1658849;85;20148;-73
2022/05/03 11:30:04;;;;;;;;;;;;;;;21.38;25.07;99049.15;1655655;86;21662;-72
2022/05/03 11:32:44;;;;;;;;;;;;;;;21.56;25.59;99046.34;1664367;85;20136;-70
2022/05/03 11:35:15;;;;;;;;;;;;;;;22.11;26.59;99038.22;1659816;85;20183;-70
2022/05/03 11:37:52;;;;;;;;;;;;;;;22.76;25.42;99028.27;1626472;86;20297;-70
2022/05/03 11:40:21;;;;;;;;;;;;;;;23.13;24.46;99038.00;1662245;85;20165;-74
2022/05/03 11:42:49;;;;;;;;;;;;;;;23.07;23.49;99032.08;1686120;84;21801;-78
2022/05/03 11:45:16;;;;;;;;;;;;;;;22.91;23.93;99022.00;1686419;83;20146;-72
2022/05/03 11:47:48;;;;;;;;;;;;;;;22.78;24.17;99021.66;1686307;84;20131;-71
2022/05/03 11:56:04;;;;;;;;;;;;;;;23.36;23.63;99020.80;1690165;82;21226;-70
2022/05/03 11:58:31;;;;;;;;;;;;;;;23.16;24.05;99009.98;1682497;85;20458;-72
2022/05/03 12:00:57;;;;;;;;;;;;;;;23.18;24.69;99012.36;1690920;85;20215;-74
2022/05/03 12:03:24;;;;;;;;;;;;;;;23.24;24.98;99010.71;1701304;84;20657;-71
2022/05/03 12:05:58;;;;;;;;;;;;;;;23.22;25.40;99004.73;1701084;82;20145;-70
2022/05/03 12:08:25;;;;;;;;;;;;;;;23.14;24.63;99002.59;1695456;83;21328;-71
2022/05/03 12:10:52;;;;;;;;;;;;;;;22.91;24.83;99000.41;1675406;83;20179;-74
2022/05/03 12:13:28;;;;;;;;;;;;;;;22.65;25.46;98999.56;1710372;82;20482;-69
2022/05/03 12:16:01;;;;;;;;;;;;;;;22.36;25.81;99001.16;1635731;85;20437;-71
2022/05/03 12:18:35;;;;;;;;;;;;;;;22.11;26.59;99002.48;1711980;83;20171;-73
2022/05/03 12:21:08;;;;;;;;;;;;;;;21.88;26.26;99005.77;1721984;82;21159;-68
2022/05/03 12:23:38;;;;;;;;;;;;;;;21.65;25.71;98997.84;1707187;81;20159;-81
2022/05/03 12:26:27;;;;;;;;;;;;;;;21.35;26.52;98995.54;1720181;82;20422;-74
2022/05/03 12:28:57;;;;;;;;;;;;;;;21.12;26.88;99000.11;1681566;84;20173;-74
2022/05/03 12:31:34;;;;;;;;;;;;;;;20.89;27.54;99001.90;1692444;82;20437;-74
2022/05/03 12:33:58;;;;;;;;;;;;;;;20.70;27.95;99005.09;1659712;84;20744;-75
2022/05/03 12:36:34;;;;;;;;;;;;;;;20.52;28.05;99002.27;1616261;86;20176;-75
2022/05/03 12:39:30;;;;;;;;;;;;;;;20.39;29.47;98999.66;1662509;85;20127;-76
2022/05/03 12:42:00;;;;;;;;;;;;;;;20.23;32.30;99002.76;1661227;84;20151;-76
2022/05/03 12:44:27;;;;;;;;;;;;;;;20.16;33.61;98995.80;1674344;84;20431;-75
2022/05/03 12:47:06;;;;;;;;;;;;;;;20.18;32.72;98994.02;1673487;85;21045;-77
2022/05/03 12:49:33;;;;;;;;;;;;;;;20.26;31.10;98990.83;1668581;85;20472;-71
2022/05/03 12:52:00;;;;;;;;;;;;;;;20.34;30.07;98988.27;1668073;85;20171;-75
2022/05/03 12:54:27;;;;;;;;;;;;;;;20.42;29.92;98989.91;1682869;83;20200;-78
2022/05/03 12:59:39;;;;;;;;;;;;;;;20.44;30.53;98987.52;1634014;85;21741;-73
2022/05/03 13:02:05;;;;;;;;;;;;;;;20.41;29.20;98975.77;1665730;85;20135;-77
2022/05/03 13:04:32;;;;;;;;;;;;;;;20.27;29.30;98983.27;1674102;84;20145;-74
2022/05/03 13:06:58;;;;;;;;;;;;;;;20.14;29.24;98984.84;1662319;85;20151;-74
2022/05/03 13:09:25;;;;;;;;;;;;;;;20.06;29.00;98978.45;1661777;85;20188;-73
2022/05/03 13:11:52;;;;;;;;;;;;;;;20.01;28.94;98973.25;1661103;85;21274;-75
2022/05/03 13:14:19;;;;;;;;;;;;;;;20.02;28.63;98985.99;1600105;87;20196;-74
2022/05/03 13:16:48;;;;;;;;;;;;;;;20.02;29.32;98981.22;1628628;86;20205;-76
2022/05/03 13:19:14;;;;;;;;;;;;;;;20.10;29.99;98992.59;1632797;84;20119;-74
2022/05/03 13:21:41;;;;;;;;;;;;;;;20.27;30.35;98984.06;1602012;87;20188;-76
2022/05/03 13:24:08;;;;;;;;;;;;;;;20.65;29.99;98988.16;1668195;85;21158;-78
2022/05/03 13:26:35;;;;;;;;;;;;;;;21.13;29.82;98979.37;1645025;85;20611;-73
2022/05/03 13:29:13;;;;;;;;;;;;;;;21.74;29.65;98980.86;1647385;85;20176;-76
2022/05/03 13:31:40;;;;;;;;;;;;;;;22.39;27.88;98978.58;1661633;85;20145;-72
2022/05/03 13:34:07;;;;;;;;;;;;;;;22.89;27.46;98972.04;1661284;86;20511;-75
2022/05/03 13:42:08;;;;;;;;;;;;;;;23.17;26.62;98969.57;1656151;85;20107;-72
2022/05/03 13:44:35;;;;;;;;;;;;;;;23.03;26.24;98970.52;1657391;86;20168;-76
2022/05/03 13:47:03;;;;;;;;;;;;;;;23.15;26.89;98964.99;1658489;86;20195;-74
2022/05/03 13:49:30;;;;;;;;;;;;;;;23.34;26.83;98967.81;1658182;85;21844;-73
2022/05/03 13:51:57;;;;;;;;;;;;;;;23.51;25.83;98964.64;1622981;86;20203;-72
2022/05/03 13:54:24;;;;;;;;;;;;;;;23.71;26.16;98969.22;1626770;86;20158;-77
2022/05/03 13:56:50;;;;;;;;;;;;;;;23.95;25.32;98964.53;1656956;85;20136;-72
2022/05/03 13:59:17;;;;;;;;;;;;;;;24.14;25.34;98958.88;1661908;85;20221;-76